Home > Products > Valid Products > TAF

000
FTUS45 KABQ 281135
TAFLVS
TAF
KLVS 281135Z 2812/2912 01006KT P6SM SCT250
     FM281800 07007KT P6SM SCT070 SCT250
     FM282100 06010KT P6SM VCTS BKN070CB
     FM290000 02009KT P6SM SCT070 SCT250=



000
FTUS45 KABQ 281135
TAFFMN
TAF
KFMN 281135Z 2812/2912 VRB05KT P6SM FEW250
     FM282000 27010KT P6SM FEW100
     FM290100 30010KT P6SM FEW100
     FM290400 08006KT P6SM FEW120=



000
FTUS45 KABQ 281135
TAFABQ
TAF
KABQ 281135Z 2812/2912 VRB05KT P6SM SCT250
     FM281900 05007KT P6SM SCT080 SCT250
     FM282300 09014G24KT P6SM VCSH BKN100
     FM290400 09010KT P6SM SCT100 SCT250=



000
FTUS45 KABQ 281135
TAFSAF
TAF
KSAF 281135Z 2812/2912 36008KT P6SM SCT250
     FM282000 13008KT P6SM VCSH SCT070 SCT250
     FM290000 13012KT P6SM SCT070 SCT250
     FM290800 01009KT P6SM FEW070 SCT250=



000
FTUS45 KABQ 281135
TAFGUP
TAF
KGUP 281135Z 2812/2912 VRB03KT P6SM FEW250
     FM281900 02008KT P6SM FEW100
     FM290200 VRB04KT P6SM FEW100=



000
FTUS45 KABQ 281135
TAFROW
TAF
KROW 281135Z 2812/2912 36006KT P6SM BKN120
     FM282100 04006KT P6SM VCTS BKN070CB
     FM290100 10007KT P6SM VCSH BKN100
     FM290400 02007KT P6SM BKN100=



000
FTUS45 KABQ 281135
TAFTCC
TAF
KTCC 281135Z 2812/2912 35009KT P6SM BKN250
     FM281400 03011KT P6SM SCT250
     FM282000 06013KT P6SM SCT100 BKN200
     FM290200 05009KT P6SM VCSH BKN100
     FM290500 35007KT P6SM FEW100 SCT250=



000
FTUS45 KABQ 281135
TAFABQ
TAF
KABQ 281135Z 2812/2912 VRB05KT P6SM SCT250
     FM281900 05007KT P6SM SCT080 SCT250
     FM282300 09014G24KT P6SM VCSH BKN100
     FM290400 09010KT P6SM SCT100 SCT250=



000
FTUS45 KABQ 281135
TAFTCC
TAF
KTCC 281135Z 2812/2912 35009KT P6SM BKN250
     FM281400 03011KT P6SM SCT250
     FM282000 06013KT P6SM SCT100 BKN200
     FM290200 05009KT P6SM VCSH BKN100
     FM290500 35007KT P6SM FEW100 SCT250=



000
FTUS45 KABQ 281135
TAFLVS
TAF
KLVS 281135Z 2812/2912 01006KT P6SM SCT250
     FM281800 07007KT P6SM SCT070 SCT250
     FM282100 06010KT P6SM VCTS BKN070CB
     FM290000 02009KT P6SM SCT070 SCT250=



000
FTUS45 KABQ 281135
TAFGUP
TAF
KGUP 281135Z 2812/2912 VRB03KT P6SM FEW250
     FM281900 02008KT P6SM FEW100
     FM290200 VRB04KT P6SM FEW100=



000
FTUS45 KABQ 281135
TAFROW
TAF
KROW 281135Z 2812/2912 36006KT P6SM BKN120
     FM282100 04006KT P6SM VCTS BKN070CB
     FM290100 10007KT P6SM VCSH BKN100
     FM290400 02007KT P6SM BKN100=



000
FTUS45 KABQ 281135
TAFFMN
TAF
KFMN 281135Z 2812/2912 VRB05KT P6SM FEW250
     FM282000 27010KT P6SM FEW100
     FM290100 30010KT P6SM FEW100
     FM290400 08006KT P6SM FEW120=



000
FTUS45 KABQ 281135
TAFSAF
TAF
KSAF 281135Z 2812/2912 36008KT P6SM SCT250
     FM282000 13008KT P6SM VCSH SCT070 SCT250
     FM290000 13012KT P6SM SCT070 SCT250
     FM290800 01009KT P6SM FEW070 SCT250=



000
FTUS45 KABQ 280541
TAFGUP
TAF
KGUP 280541Z 2806/2906 VRB03KT P6SM BKN250
     FM281900 02008KT P6SM FEW100
     FM290200 VRB04KT P6SM FEW100=



000
FTUS45 KABQ 280541
TAFABQ
TAF
KABQ 280541Z 2806/2906 14006KT P6SM BKN250
     FM281000 VRB05KT P6SM BKN250
     FM281900 09010KT P6SM SCT080 SCT250
     FM282200 09014KT P6SM VCSH BKN100
     FM290200 09010KT P6SM SCT100 SCT250=



000
FTUS45 KABQ 280541
TAFFMN
TAF
KFMN 280541Z 2806/2906 34007KT P6SM BKN250
     FM280900 07005KT P6SM SCT250
     FM282000 26010KT P6SM FEW100
     FM290100 30010KT P6SM FEW100
     FM290400 08006KT P6SM FEW120=



000
FTUS45 KABQ 280541
TAFTCC
TAF
KTCC 280541Z 2806/2906 25010KT P6SM SCT100 BKN250
     FM280700 35009KT P6SM BKN250
     FM281200 03011KT P6SM BKN250
     FM282000 05010KT P6SM SCT100 BKN200
     FM290200 05009KT P6SM VCSH BKN100=



000
FTUS45 KABQ 280541
TAFROW
TAF
KROW 280541Z 2806/2906 21006KT P6SM BKN120
     FM281200 36006KT P6SM BKN120
     FM282100 04006KT P6SM VCTS BKN070CB
     FM290100 10007KT P6SM VCSH BKN100
     FM290400 02007KT P6SM BKN100=



000
FTUS45 KABQ 280541
TAFSAF
TAF
KSAF 280541Z 2806/2906 36008KT P6SM FEW070 BKN250
     FM282000 13008KT P6SM VCSH SCT070 SCT250
     FM290000 13012KT P6SM SCT070 SCT250=



000
FTUS45 KABQ 280541
TAFLVS
TAF
KLVS 280541Z 2806/2906 01006KT P6SM BKN250
     FM281800 07007KT P6SM SCT070 SCT250
     FM282100 06010KT P6SM VCTS BKN070CB
     FM290100 02009KT P6SM SCT070 SCT250=



000
FTUS45 KABQ 280116 AAA
TAFTCC
TAF AMD
KTCC 280116Z 2801/2824 29011KT P6SM VCTS BKN090CB
     FM280300 30011KT P6SM SCT100
     FM280700 35009KT P6SM SCT200
     FM281500 03008KT P6SM SCT200
     FM282000 05009KT P6SM BKN200=



000
FTUS45 KABQ 280116 AAA
TAFTCC
TAF AMD
KTCC 280116Z 2801/2824 29011KT P6SM VCTS BKN090CB
     FM280300 30011KT P6SM SCT100
     FM280700 35009KT P6SM SCT200
     FM281500 03008KT P6SM SCT200
     FM282000 05009KT P6SM BKN200=



000
FTUS45 KABQ 272354 AAA
TAFABQ
TAF AMD
KABQ 272354Z 2800/2824 23011KT P6SM SCT080
     FM280300 31006KT P6SM BKN100
     FM280700 01004KT P6SM SCT120
     FM281900 09006KT P6SM SCT080=



000
FTUS45 KABQ 272354 AAA
TAFABQ
TAF AMD
KABQ 272354Z 2800/2824 23011KT P6SM SCT080
     FM280300 31006KT P6SM BKN100
     FM280700 01004KT P6SM SCT120
     FM281900 09006KT P6SM SCT080=



000
FTUS45 KABQ 272323
TAFFMN
TAF
KFMN 272323Z 2800/2824 29012G20KT P6SM SCT070
     FM280200 34007KT P6SM BKN200
     FM280700 07005KT P6SM FEW200
     FM282000 26007KT P6SM FEW100=



000
FTUS45 KABQ 272323
TAFGUP
TAF
KGUP 272323Z 2800/2824 03007KT P6SM VCSH BKN100
     FM280300 VRB03KT P6SM BKN200
     FM281900 02007KT P6SM FEW100=



000
FTUS45 KABQ 272323
TAFTCC
TAF
KTCC 272323Z 2800/2824 20012KT P6SM VCTS SCT100CB
     FM280300 23011KT P6SM SCT120
     FM280700 35009KT P6SM SCT200
     FM281500 03008KT P6SM SCT200
     FM282000 05009KT P6SM BKN200=



000
FTUS45 KABQ 272323
TAFSAF
TAF
KSAF 272323Z 2800/2824 33007KT P6SM VCSH BKN070
     FM280400 36008KT P6SM FEW070
     FM282000 13008KT P6SM VCSH SCT070=



000
FTUS45 KABQ 272323
TAFROW
TAF
KROW 272323Z 2800/2824 03005KT P6SM BKN100
     FM280200 21006KT P6SM BKN120
     FM281200 36006KT P6SM BKN120
     FM282100 04006KT P6SM VCTS BKN070CB=



000
FTUS45 KABQ 272323
TAFFMN
TAF
KFMN 272323Z 2800/2824 29012G20KT P6SM SCT070
     FM280200 34007KT P6SM BKN200
     FM280700 07005KT P6SM FEW200
     FM282000 26007KT P6SM FEW100=



000
FTUS45 KABQ 272323
TAFLVS
TAF
KLVS 272323Z 2800/2824 28011G20KT P6SM SCT070
     FM280400 33008KT P6SM SCT080
     FM280900 02006KT P6SM FEW080
     FM281800 10007KT P6SM SCT070
     FM282100 12008KT P6SM VCTS BKN070CB=



000
FTUS45 KABQ 272323
TAFABQ
TAF
KABQ 272323Z 2800/2824 26009KT P6SM SCT080
     FM280300 31006KT P6SM BKN100
     FM280700 01004KT P6SM SCT120
     FM281900 09006KT P6SM SCT080=



000
FTUS45 KABQ 272323
TAFABQ
TAF
KABQ 272323Z 2800/2824 26009KT P6SM SCT080
     FM280300 31006KT P6SM BKN100
     FM280700 01004KT P6SM SCT120
     FM281900 09006KT P6SM SCT080=



000
FTUS45 KABQ 272323
TAFLVS
TAF
KLVS 272323Z 2800/2824 28011G20KT P6SM SCT070
     FM280400 33008KT P6SM SCT080
     FM280900 02006KT P6SM FEW080
     FM281800 10007KT P6SM SCT070
     FM282100 12008KT P6SM VCTS BKN070CB=



000
FTUS45 KABQ 272323
TAFGUP
TAF
KGUP 272323Z 2800/2824 03007KT P6SM VCSH BKN100
     FM280300 VRB03KT P6SM BKN200
     FM281900 02007KT P6SM FEW100=



000
FTUS45 KABQ 272323
TAFROW
TAF
KROW 272323Z 2800/2824 03005KT P6SM BKN100
     FM280200 21006KT P6SM BKN120
     FM281200 36006KT P6SM BKN120
     FM282100 04006KT P6SM VCTS BKN070CB=



000
FTUS45 KABQ 272323
TAFSAF
TAF
KSAF 272323Z 2800/2824 33007KT P6SM VCSH BKN070
     FM280400 36008KT P6SM FEW070
     FM282000 13008KT P6SM VCSH SCT070=



000
FTUS45 KABQ 272323
TAFTCC
TAF
KTCC 272323Z 2800/2824 20012KT P6SM VCTS SCT100CB
     FM280300 23011KT P6SM SCT120
     FM280700 35009KT P6SM SCT200
     FM281500 03008KT P6SM SCT200
     FM282000 05009KT P6SM BKN200=



000
FTUS45 KABQ 271901 AAB
TAFABQ
TAF AMD
KABQ 271901Z 2719/2818 27006KT P6SM FEW070 BKN250
     FM272000 27010KT P6SM VCTS BKN080CB
     FM280300 32006KT P6SM BKN070
     FM280700 VRB04KT P6SM SKC=



000
FTUS45 KABQ 271901 AAB
TAFABQ
TAF AMD
KABQ 271901Z 2719/2818 27006KT P6SM FEW070 BKN250
     FM272000 27010KT P6SM VCTS BKN080CB
     FM280300 32006KT P6SM BKN070
     FM280700 VRB04KT P6SM SKC=



000
FTUS45 KABQ 271737
TAFROW
TAF
KROW 271737Z 2718/2818 17007KT P6SM FEW150
     FM272300 19012KT P6SM VCTS BKN080CB
     FM280300 21006KT P6SM SCT150
     FM280800 VRB04KT P6SM BKN100=



000
FTUS45 KABQ 271737
TAFABQ
TAF
KABQ 271737Z 2718/2818 27006KT P6SM FEW130 BKN250
     FM272200 27010KT P6SM VCTS BKN080CB
     FM280300 32006KT P6SM BKN070
     FM280700 VRB04KT P6SM SKC=



000
FTUS45 KABQ 271737
TAFGUP
TAF
KGUP 271737Z 2718/2818 28010KT P6SM SCT080
     FM280000 03007KT P6SM SCT100
     FM280400 VRB03KT P6SM SKC=



000
FTUS45 KABQ 271737
TAFLVS
TAF
KLVS 271737Z 2718/2818 28014G20KT P6SM FEW080 SCT150
     FM272200 25012G20KT P6SM VCTS BKN080CB
     FM280200 26007KT P6SM SCT100
     FM280900 02007KT P6SM SCT080
     FM281600 10007KT P6SM BKN080=



000
FTUS45 KABQ 271737
TAFFMN
TAF
KFMN 271737Z 2718/2818 12005KT P6SM FEW080
     FM272000 29012G20KT P6SM SCT070
     FM280100 33007KT P6SM SKC
     FM280700 07005KT P6SM SKC=



000
FTUS45 KABQ 271737
TAFTCC
TAF
KTCC 271737Z 2718/2818 23012G20KT P6SM SCT150
     FM272000 22018G28KT P6SM VCTS BKN080CB
     FM280300 23010KT P6SM BKN100
     FM280800 32006KT P6SM SCT100=



000
FTUS45 KABQ 271737
TAFSAF
TAF
KSAF 271737Z 2718/2818 27010KT P6SM FEW040
     FM272200 29012KT P6SM VCTS BKN070CB
     FM280300 34006KT P6SM SCT070
     FM280600 01007KT P6SM SKC=



000
FTUS45 KABQ 271135
TAFGUP
TAF
KGUP 271135Z 2712/2812 16006KT P6SM VCSH SCT060 BKN090
     FM271900 29010KT P6SM VCTS BKN090CB
     FM280200 04006KT P6SM SCT100=



000
FTUS45 KABQ 271135
TAFLVS
TAF
KLVS 271135Z 2712/2812 22012KT P6SM BKN100
     FM271600 23012G20KT P6SM SCT080 BKN120
     FM272100 25012G20KT P6SM VCTS BKN080CB
     FM280200 26007KT P6SM BKN100=



000
FTUS45 KABQ 271135
TAFABQ
TAF
KABQ 271135Z 2712/2812 16006KT P6SM VCSH SCT060 BKN090
     FM271700 25007KT P6SM BKN100
     FM272200 27010KT P6SM VCSH BKN090
     FM280300 32006KT P6SM BKN120=



000
FTUS45 KABQ 271135
TAFROW
TAF
KROW 271135Z 2712/2812 17007KT P6SM BKN150
     FM272300 19012KT P6SM VCTS BKN100CB
     FM280300 21006KT P6SM BKN120=



000
FTUS45 KABQ 271135
TAFFMN
TAF
KFMN 271135Z 2712/2812 10006KT P6SM BKN100
     FM272000 29011KT P6SM SCT070 SCT120
     FM280400 07006KT P6SM FEW150=



000
FTUS45 KABQ 271135
TAFSAF
TAF
KSAF 271135Z 2712/2812 33007KT P6SM SCT050 BKN100
     FM271800 27010KT P6SM SCT070 BKN120
     FM272200 29012KT P6SM VCTS BKN080CB
     FM280300 34006KT P6SM SCT110=



000
FTUS45 KABQ 271135
TAFLVS
TAF
KLVS 271135Z 2712/2812 22012KT P6SM BKN100
     FM271600 23012G20KT P6SM SCT080 BKN120
     FM272100 25012G20KT P6SM VCTS BKN080CB
     FM280200 26007KT P6SM BKN100=



000
FTUS45 KABQ 271135
TAFGUP
TAF
KGUP 271135Z 2712/2812 16006KT P6SM VCSH SCT060 BKN090
     FM271900 29010KT P6SM VCTS BKN090CB
     FM280200 04006KT P6SM SCT100=



000
FTUS45 KABQ 271135
TAFABQ
TAF
KABQ 271135Z 2712/2812 16006KT P6SM VCSH SCT060 BKN090
     FM271700 25007KT P6SM BKN100
     FM272200 27010KT P6SM VCSH BKN090
     FM280300 32006KT P6SM BKN120=



000
FTUS45 KABQ 271135
TAFTCC
TAF
KTCC 271135Z 2712/2812 23008KT P6SM BKN100
     FM271600 23012G20KT P6SM BKN100
     FM272200 22015G25KT P6SM VCTS BKN080CB
     FM280300 23010KT P6SM BKN100=



000
FTUS45 KABQ 271135
TAFROW
TAF
KROW 271135Z 2712/2812 17007KT P6SM BKN150
     FM272300 19012KT P6SM VCTS BKN100CB
     FM280300 21006KT P6SM BKN120=



000
FTUS45 KABQ 271135
TAFFMN
TAF
KFMN 271135Z 2712/2812 10006KT P6SM BKN100
     FM272000 29011KT P6SM SCT070 SCT120
     FM280400 07006KT P6SM FEW150=



000
FTUS45 KABQ 271135
TAFSAF
TAF
KSAF 271135Z 2712/2812 33007KT P6SM SCT050 BKN100
     FM271800 27010KT P6SM SCT070 BKN120
     FM272200 29012KT P6SM VCTS BKN080CB
     FM280300 34006KT P6SM SCT110=



000
FTUS45 KABQ 271135
TAFTCC
TAF
KTCC 271135Z 2712/2812 23008KT P6SM BKN100
     FM271600 23012G20KT P6SM BKN100
     FM272200 22015G25KT P6SM VCTS BKN080CB
     FM280300 23010KT P6SM BKN100=



000
FTUS45 KABQ 270555 CCA
TAFABQ
TAF COR
KABQ 270555Z 2706/2806 25008KT P6SM VCSH SCT050 BKN090
     FM271100 06006KT P6SM BKN100
     FM271900 26010KT P6SM BKN100
     FM272200 26011KT P6SM VCSH BKN090
     FM280300 33007KT P6SM SCT120=



000
FTUS45 KABQ 270555 CCA
TAFABQ
TAF COR
KABQ 270555Z 2706/2806 25008KT P6SM VCSH SCT050 BKN090
     FM271100 06006KT P6SM BKN100
     FM271900 26010KT P6SM BKN100
     FM272200 26011KT P6SM VCSH BKN090
     FM280300 33007KT P6SM SCT120=



000
FTUS45 KABQ 270539
TAFTCC
TAF
KTCC 270539Z 2706/2806 23008KT P6SM BKN100
     FM271600 23016G26KT P6SM BKN100
     FM272200 22018G28KT P6SM VCTS BKN080CB
     FM280100 21012G22KT P6SM BKN100=



000
FTUS45 KABQ 270539
TAFFMN
TAF
KFMN 270539Z 2706/2806 11011KT P6SM VCSH SCT035 BKN080
      TEMPO 2706/2708 12015G25KT 6SM -SHRA SCT025 BKN035
     FM271200 10006KT P6SM BKN100
     FM272000 29011KT P6SM SCT120
     FM280400 06005KT P6SM FEW150=



000
FTUS45 KABQ 270539
TAFLVS
TAF
KLVS 270539Z 2706/2806 20009KT P6SM VCSH BKN090
     FM271200 20011KT P6SM BKN100
     FM271600 23017G27KT P6SM SCT080 BKN120
     FM272200 VRB20G30KT P6SM VCTS BKN080CB
     FM280100 26010KT P6SM BKN100=



000
FTUS45 KABQ 270539
TAFGUP
TAF
KGUP 270539Z 2706/2806 19006KT P6SM VCSH BKN070
     FM270800 21006KT P6SM BKN080
     FM271900 29010KT P6SM VCSH BKN100
     FM280200 04005KT P6SM SCT100=



000
FTUS45 KABQ 270539
TAFABQ
TAF
KABQ 270539Z 2706/2806 25008KT P6SM VCSH SCT050 BKN090
     FM271100 06006KT P6SM VCSH BKN100
     FM271900 26010KT P6SM BKN100
     FM272200 26011KT P6SM VCSH BKN090
     FM280300 33007KT P6SM SCT120=



000
FTUS45 KABQ 270539
TAFSAF
TAF
KSAF 270539Z 2706/2806 VRB06KT P6SM BKN090
     FM270800 35006KT P6SM VCSH BKN080
     FM271100 36008KT P6SM BKN090
     FM271800 27012KT P6SM BKN090
     FM272200 28012KT P6SM VCSH BKN090
     FM280300 34006KT P6SM SCT110=



000
FTUS45 KABQ 270539
TAFROW
TAF
KROW 270539Z 2706/2806 17007KT P6SM BKN100
     FM272300 20011KT P6SM VCSH BKN100
     FM280300 20006KT P6SM BKN120=



000
FTUS45 KABQ 270124 AAA
TAFGUP
TAF AMD
KGUP 270124Z 2701/2724 14011KT P6SM VCSH SCT060 BKN120
      TEMPO 2702/2705 VRB18G32KT 6SM -TSRA BKN060CB
     FM270500 19006KT P6SM VCSH BKN100
     FM270800 21006KT P6SM BKN100
     FM271900 29010KT P6SM SCT100=



000
FTUS45 KABQ 270124 AAA
TAFGUP
TAF AMD
KGUP 270124Z 2701/2724 14011KT P6SM VCSH SCT060 BKN120
      TEMPO 2702/2705 VRB18G32KT 6SM -TSRA BKN060CB
     FM270500 19006KT P6SM VCSH BKN100
     FM270800 21006KT P6SM BKN100
     FM271900 29010KT P6SM SCT100=



000
FTUS45 KABQ 270048 AAA
TAFFMN
TAF AMD
KFMN 270048Z 2701/2724 11011KT P6SM VCSH BKN090
      TEMPO 2701/2704 VRB15G25KT 6SM -TSRA BKN090CB
     FM270400 06006KT P6SM VCSH SCT060 BKN090
     FM271200 10006KT P6SM BKN100
     FM272000 29011KT P6SM SCT120=



000
FTUS45 KABQ 270048 AAA
TAFFMN
TAF AMD
KFMN 270048Z 2701/2724 11011KT P6SM VCSH BKN090
      TEMPO 2701/2704 VRB15G25KT 6SM -TSRA BKN090CB
     FM270400 06006KT P6SM VCSH SCT060 BKN090
     FM271200 10006KT P6SM BKN100
     FM272000 29011KT P6SM SCT120=



000
FTUS45 KABQ 262339
TAFROW
TAF
KROW 262339Z 2700/2724 16010G18KT P6SM SCT100 BKN150
     FM270100 19007KT P6SM BKN100=



000
FTUS45 KABQ 262339
TAFTCC
TAF
KTCC 262339Z 2700/2724 17011KT P6SM SCT100 BKN150
     FM270200 18010KT P6SM VCSH BKN100
     FM270500 22010KT P6SM BKN100
     FM271600 22018G28KT P6SM BKN100=



000
FTUS45 KABQ 262339
TAFLVS
TAF
KLVS 262339Z 2700/2724 24011G18KT P6SM SCT080 BKN120
     FM270200 24011KT P6SM VCTS BKN080CB
     FM270500 21009KT P6SM VCSH BKN100
     FM270900 21011KT P6SM BKN100
     FM271600 23015G25KT P6SM SCT080 BKN120
     FM272200 VRB15G25KT P6SM VCTS BKN080CB=



000
FTUS45 KABQ 262339
TAFFMN
TAF
KFMN 262339Z 2700/2724 11011KT P6SM VCTS BKN090CB
     FM270300 10006KT P6SM BKN100
     FM272000 29011KT P6SM SCT120=



000
FTUS45 KABQ 262339
TAFABQ
TAF
KABQ 262339Z 2700/2724 09011KT P6SM VCSH SCT070 BKN120
      TEMPO 2700/2703 VRB18G32KT -TSRA BKN070CB
     FM270800 25006KT P6SM BKN100
     FM271800 25010KT P6SM BKN100
     FM272200 VRB15G25KT P6SM VCTS BKN090CB=



000
FTUS45 KABQ 262339
TAFROW
TAF
KROW 262339Z 2700/2724 16010G18KT P6SM SCT100 BKN150
     FM270100 19007KT P6SM BKN100=



000
FTUS45 KABQ 262339
TAFGUP
TAF
KGUP 262339Z 2700/2724 23013G23KT P6SM VCSH SCT060 BKN120
      TEMPO 2700/2703 VRB18G32KT 6SM -TSRA BKN060CB
     FM270500 20005KT P6SM VCSH BKN100
     FM271900 29010KT P6SM SCT100=



000
FTUS45 KABQ 262339
TAFSAF
TAF
KSAF 262339Z 2700/2724 16011KT P6SM VCSH SCT060 BKN090
      TEMPO 2701/2704 VRB15G25KT -TSRA BKN060CB
     FM270400 34010KT P6SM VCSH BKN090
     FM270900 36008KT P6SM BKN090
     FM271800 28012KT P6SM BKN090
     FM272200 VRB15G25KT P6SM VCTS BKN090CB=



000
FTUS45 KABQ 262339
TAFTCC
TAF
KTCC 262339Z 2700/2724 17011KT P6SM SCT100 BKN150
     FM270200 18010KT P6SM VCSH BKN100
     FM270500 22010KT P6SM BKN100
     FM271600 22018G28KT P6SM BKN100=



000
FTUS45 KABQ 262339
TAFLVS
TAF
KLVS 262339Z 2700/2724 24011G18KT P6SM SCT080 BKN120
     FM270200 24011KT P6SM VCTS BKN080CB
     FM270500 21009KT P6SM VCSH BKN100
     FM270900 21011KT P6SM BKN100
     FM271600 23015G25KT P6SM SCT080 BKN120
     FM272200 VRB15G25KT P6SM VCTS BKN080CB=



000
FTUS45 KABQ 262339
TAFSAF
TAF
KSAF 262339Z 2700/2724 16011KT P6SM VCSH SCT060 BKN090
      TEMPO 2701/2704 VRB15G25KT -TSRA BKN060CB
     FM270400 34010KT P6SM VCSH BKN090
     FM270900 36008KT P6SM BKN090
     FM271800 28012KT P6SM BKN090
     FM272200 VRB15G25KT P6SM VCTS BKN090CB=



000
FTUS45 KABQ 262339
TAFFMN
TAF
KFMN 262339Z 2700/2724 11011KT P6SM VCTS BKN090CB
     FM270300 10006KT P6SM BKN100
     FM272000 29011KT P6SM SCT120=



000
FTUS45 KABQ 262339
TAFABQ
TAF
KABQ 262339Z 2700/2724 09011KT P6SM VCSH SCT070 BKN120
      TEMPO 2700/2703 VRB18G32KT -TSRA BKN070CB
     FM270800 25006KT P6SM BKN100
     FM271800 25010KT P6SM BKN100
     FM272200 VRB15G25KT P6SM VCTS BKN090CB=



000
FTUS45 KABQ 262339
TAFGUP
TAF
KGUP 262339Z 2700/2724 23013G23KT P6SM VCSH SCT060 BKN120
      TEMPO 2700/2703 VRB18G32KT 6SM -TSRA BKN060CB
     FM270500 20005KT P6SM VCSH BKN100
     FM271900 29010KT P6SM SCT100=



000
FTUS45 KABQ 261740
TAFSAF
TAF
KSAF 261740Z 2618/2718 VRB06KT P6SM VCSH FEW070 BKN100
     FM261930 20010KT P6SM VCSH BKN080 BKN110
     FM262230 13012G20KT P6SM VCSH BKN080
      TEMPO 2623/2703 VRB18G32KT -TSRA BKN070CB BKN110
     FM270300 01012KT P6SM VCSH BKN080
     FM270900 01007KT P6SM SCT100 BKN140=



000
FTUS45 KABQ 261740
TAFROW
TAF
KROW 261740Z 2618/2718 VRB06KT P6SM FEW080 SCT140
     FM261900 16012KT P6SM SCT100 BKN150
     FM270100 17007KT P6SM BKN100=



000
FTUS45 KABQ 261740
TAFABQ
TAF
KABQ 261740Z 2618/2718 02006KT P6SM VCSH BKN100
     FM262000 21008KT P6SM SCT080 BKN120
     FM262230 20010G18KT P6SM VCSH SCT080 BKN120
     FM270000 15012G20KT P6SM VCSH SCT080 BKN120
      TEMPO 2700/2703 VRB18G32KT -TSRA BKN070CB BKN110
     FM270300 01007KT P6SM VCSH BKN090
     FM270800 VRB06KT P6SM SCT100 BKN140=



000
FTUS45 KABQ 261740
TAFSAF
TAF
KSAF 261740Z 2618/2718 VRB06KT P6SM VCSH FEW070 BKN100
     FM261930 20010KT P6SM VCSH BKN080 BKN110
     FM262230 13012G20KT P6SM VCSH BKN080
      TEMPO 2623/2703 VRB18G32KT -TSRA BKN070CB BKN110
     FM270300 01012KT P6SM VCSH BKN080
     FM270900 01007KT P6SM SCT100 BKN140=



000
FTUS45 KABQ 261740
TAFLVS
TAF
KLVS 261740Z 2618/2718 21011G18KT P6SM BKN100
     FM262000 22012G20KT P6SM VCTS BKN080CB
     FM270100 04008KT P6SM VCSH BKN100=



000
FTUS45 KABQ 261740
TAFABQ
TAF
KABQ 261740Z 2618/2718 02006KT P6SM VCSH BKN100
     FM262000 21008KT P6SM SCT080 BKN120
     FM262230 20010G18KT P6SM VCSH SCT080 BKN120
     FM270000 15012G20KT P6SM VCSH SCT080 BKN120
      TEMPO 2700/2703 VRB18G32KT -TSRA BKN070CB BKN110
     FM270300 01007KT P6SM VCSH BKN090
     FM270800 VRB06KT P6SM SCT100 BKN140=



000
FTUS45 KABQ 261740
TAFGUP
TAF
KGUP 261740Z 2618/2718 VRB05KT P6SM BKN100
     FM261930 22012G21KT P6SM SCT070 BKN120
     FM262200 23013G23KT P6SM VCSH SCT070 BKN120
      TEMPO 2622/2702 VRB18G32KT 5SM TSRA BKN050CB BKN090
     FM270200 05007KT P6SM VCSH BKN100
     FM270900 VRB05KT P6SM SCT090 SCT140=



000
FTUS45 KABQ 261740
TAFGUP
TAF
KGUP 261740Z 2618/2718 VRB05KT P6SM BKN100
     FM261930 22012G21KT P6SM SCT070 BKN120
     FM262200 23013G23KT P6SM VCSH SCT070 BKN120
      TEMPO 2622/2702 VRB18G32KT 5SM TSRA BKN050CB BKN090
     FM270200 05007KT P6SM VCSH BKN100
     FM270900 VRB05KT P6SM SCT090 SCT140=



000
FTUS45 KABQ 261740
TAFTCC
TAF
KTCC 261740Z 2618/2718 VRB06KT P6SM BKN150
     FM261900 20012G20KT P6SM SCT100 BKN150
     FM270200 18008KT P6SM VCSH BKN100=



000
FTUS45 KABQ 261740
TAFFMN
TAF
KFMN 261740Z 2618/2718 VRB06KT P6SM VCSH SCT070 BKN090
      TEMPO 2618/2620 5SM SHRA BKN060 OVC090
     FM262130 15009KT P6SM VCSH SCT070 BKN120
      TEMPO 2622/2702 VRB18G31KT 5SM TSRA BKN060CB BKN090
     FM270700 10006KT P6SM SCT080 BKN110=



000
FTUS45 KABQ 261740
TAFTCC
TAF
KTCC 261740Z 2618/2718 VRB06KT P6SM BKN150
     FM261900 20012G20KT P6SM SCT100 BKN150
     FM270200 18008KT P6SM VCSH BKN100=



000
FTUS45 KABQ 261740
TAFLVS
TAF
KLVS 261740Z 2618/2718 21011G18KT P6SM BKN100
     FM262000 22012G20KT P6SM VCTS BKN080CB
     FM270100 04008KT P6SM VCSH BKN100=



000
FTUS45 KABQ 261740
TAFROW
TAF
KROW 261740Z 2618/2718 VRB06KT P6SM FEW080 SCT140
     FM261900 16012KT P6SM SCT100 BKN150
     FM270100 17007KT P6SM BKN100=



000
FTUS45 KABQ 261740
TAFFMN
TAF
KFMN 261740Z 2618/2718 VRB06KT P6SM VCSH SCT070 BKN090
      TEMPO 2618/2620 5SM SHRA BKN060 OVC090
     FM262130 15009KT P6SM VCSH SCT070 BKN120
      TEMPO 2622/2702 VRB18G31KT 5SM TSRA BKN060CB BKN090
     FM270700 10006KT P6SM SCT080 BKN110=



000
FTUS45 KABQ 261132
TAFSAF
TAF
KSAF 261132Z 2612/2712 36006KT P6SM BKN100
     FM261800 20010KT P6SM VCSH BKN080
     FM262200 13012G20KT 6SM -TSRA BKN060CB
     FM270200 01012KT P6SM VCSH BKN080=



000
FTUS45 KABQ 261132
TAFROW
TAF
KROW 261132Z 2612/2712 VRB06KT P6SM BKN150
     FM261900 16012KT P6SM SCT100 BKN150
     FM270100 17007KT P6SM BKN100=



000
FTUS45 KABQ 261132
TAFABQ
TAF
KABQ 261132Z 2612/2712 12006KT P6SM BKN090
     FM261500 19006KT P6SM VCSH BKN070
     FM261900 20010KT P6SM BKN100
     FM262100 20010G18KT P6SM VCSH BKN090
     FM270000 15012G20KT P6SM VCTS BKN070CB
     FM270300 35008KT P6SM VCSH BKN090=



000
FTUS45 KABQ 261132
TAFFMN
TAF
KFMN 261132Z 2612/2712 08007KT P6SM VCSH BKN060 BKN090
     FM261500 12007KT P6SM BKN060
     FM261800 14010KT P6SM VCSH SCT060 BKN090
     FM270000 15010KT P6SM VCTS SCT060CB BKN090
     FM270300 10006KT P6SM VCSH SCT060 BKN090=



000
FTUS45 KABQ 261132
TAFABQ
TAF
KABQ 261132Z 2612/2712 12006KT P6SM BKN090
     FM261500 19006KT P6SM VCSH BKN070
     FM261900 20010KT P6SM BKN100
     FM262100 20010G18KT P6SM VCSH BKN090
     FM270000 15012G20KT P6SM VCTS BKN070CB
     FM270300 35008KT P6SM VCSH BKN090=



000
FTUS45 KABQ 261132
TAFFMN
TAF
KFMN 261132Z 2612/2712 08007KT P6SM VCSH BKN060 BKN090
     FM261500 12007KT P6SM BKN060
     FM261800 14010KT P6SM VCSH SCT060 BKN090
     FM270000 15010KT P6SM VCTS SCT060CB BKN090
     FM270300 10006KT P6SM VCSH SCT060 BKN090=



000
FTUS45 KABQ 261132
TAFROW
TAF
KROW 261132Z 2612/2712 VRB06KT P6SM BKN150
     FM261900 16012KT P6SM SCT100 BKN150
     FM270100 17007KT P6SM BKN100=



000
FTUS45 KABQ 261132
TAFGUP
TAF
KGUP 261132Z 2612/2712 VRB06KT P6SM VCSH OVC080
     FM261400 12006KT P6SM BKN100
     FM261800 22013G23KT P6SM BKN100
     FM262200 22012G22KT P6SM VCTS BKN080CB
     FM270200 05007KT P6SM VCSH BKN100=



000
FTUS45 KABQ 261132
TAFTCC
TAF
KTCC 261132Z 2612/2712 23010KT P6SM BKN150
     FM261800 20012G20KT P6SM SCT100 BKN150
     FM270200 18008KT P6SM VCSH BKN100=



000
FTUS45 KABQ 261132
TAFSAF
TAF
KSAF 261132Z 2612/2712 36006KT P6SM BKN100
     FM261800 20010KT P6SM VCSH BKN080
     FM262200 13012G20KT 6SM -TSRA BKN060CB
     FM270200 01012KT P6SM VCSH BKN080=



000
FTUS45 KABQ 261132
TAFLVS
TAF
KLVS 261132Z 2612/2712 15007KT P6SM BKN150
     FM261700 20012G20KT P6SM BKN100
     FM262000 22012G20KT P6SM VCTS BKN080CB
     FM270100 04008KT P6SM VCSH BKN100=



000
FTUS45 KABQ 261132
TAFGUP
TAF
KGUP 261132Z 2612/2712 VRB06KT P6SM VCSH OVC080
     FM261400 12006KT P6SM BKN100
     FM261800 22013G23KT P6SM BKN100
     FM262200 22012G22KT P6SM VCTS BKN080CB
     FM270200 05007KT P6SM VCSH BKN100=



000
FTUS45 KABQ 261132
TAFTCC
TAF
KTCC 261132Z 2612/2712 23010KT P6SM BKN150
     FM261800 20012G20KT P6SM SCT100 BKN150
     FM270200 18008KT P6SM VCSH BKN100=



000
FTUS45 KABQ 261132
TAFLVS
TAF
KLVS 261132Z 2612/2712 15007KT P6SM BKN150
     FM261700 20012G20KT P6SM BKN100
     FM262000 22012G20KT P6SM VCTS BKN080CB
     FM270100 04008KT P6SM VCSH BKN100=



000
FTUS45 KABQ 260539
TAFSAF
TAF
KSAF 260539Z 2606/2706 VRB06KT P6SM BKN090
     FM261000 36006KT P6SM VCSH BKN080
     FM261500 36006KT P6SM BKN090
     FM262000 20011KT P6SM VCSH BKN090
     FM270000 VRB15G25KT 6SM -TSRA BKN080CB
     FM270300 13009KT P6SM VCSH BKN080=



000
FTUS45 KABQ 260539
TAFGUP
TAF
KGUP 260539Z 2606/2706 VRB05KT P6SM VCSH BKN100
     FM261400 12005KT P6SM BKN100
     FM261800 22013G23KT P6SM BKN100
     FM262200 22012G22KT P6SM VCTS BKN080CB
     FM270100 21007KT P6SM VCSH BKN100=



000
FTUS45 KABQ 260539
TAFFMN
TAF
KFMN 260539Z 2606/2706 09011KT P6SM VCTS BKN090CB
      TEMPO 2606/2609 VRB11G20KT -SHRA BKN090
     FM260900 10006KT P6SM VCSH SCT060 BKN090
     FM261500 11008KT 6SM -TSRA BKN060CB
     FM261800 14011KT P6SM VCSH SCT060 BKN090
     FM270000 15011KT P6SM VCTS SCT060 BKN090CB
     FM270300 10006KT P6SM VCSH SCT060 BKN090=



000
FTUS45 KABQ 260539
TAFLVS
TAF
KLVS 260539Z 2606/2706 16009KT P6SM BKN150
     FM261800 20014G24KT P6SM VCSH BKN100
     FM262200 22013G23KT P6SM VCTS BKN090CB
     FM270100 26008KT P6SM VCSH BKN100=



000
FTUS45 KABQ 260539
TAFTCC
TAF
KTCC 260539Z 2606/2706 23009KT P6SM SCT200
     FM261800 20012G22KT P6SM SCT100
     FM270200 20009KT P6SM VCSH BKN100=



000
FTUS45 KABQ 260539
TAFABQ
TAF
KABQ 260539Z 2606/2706 10006KT P6SM BKN100
     FM260900 10006KT P6SM VCSH BKN090
     FM261500 19006KT P6SM BKN100
     FM261900 20010KT P6SM BKN100
     FM262200 20010G18KT P6SM VCSH BKN090
     FM270000 VRB15G25KT P6SM VCTS BKN080CB
     FM270300 35008KT P6SM VCSH BKN090=



000
FTUS45 KABQ 260539
TAFROW
TAF
KROW 260539Z 2606/2706 20006KT P6SM SCT200
     FM261900 16011KT P6SM SCT100=



000
FTUS45 KABQ 260004 AAA
TAFTCC
TAF AMD
KTCC 260004Z 2600/2624 17011KT P6SM VCSH SCT070
      TEMPO 2600/2602 VRB15G25KT 6SM -TSRA BKN070CB
     FM260300 22008KT P6SM SCT100
     FM261800 20011G21KT P6SM SCT100=



000
FTUS45 KABQ 260004 AAA
TAFTCC
TAF AMD
KTCC 260004Z 2600/2624 17011KT P6SM VCSH SCT070
      TEMPO 2600/2602 VRB15G25KT 6SM -TSRA BKN070CB
     FM260300 22008KT P6SM SCT100
     FM261800 20011G21KT P6SM SCT100=



000
FTUS45 KABQ 252341 CCA
TAFGUP
TAF COR
KGUP 252341Z 2600/2624 19010KT P6SM VCSH BKN080
     FM260600 VRB05KT P6SM VCSH BKN080
     FM261800 21012G22KT P6SM BKN100
     FM262100 22012G22KT P6SM VCTS BKN080CB=



000
FTUS45 KABQ 252340 CCA
TAFFMN
TAF COR
KFMN 252340Z 2600/2624 13011KT P6SM VCSH BKN090
      TEMPO 2600/2603 VRB11G21KT -TSRA BKN090CB
     FM260300 13011KT P6SM VCSH SCT060 BKN090
     FM261500 07006KT 6SM -TSRA BKN060CB
     FM261800 14011KT P6SM VCSH SCT060 BKN090=



000
FTUS45 KABQ 252340
TAFABQ
TAF
KABQ 252340Z 2600/2624 20010KT P6SM VCSH SCT090 BKN140
      TEMPO 2600/2602 19010G18KT
     FM260300 10006KT P6SM BKN100
     FM260900 VRB05KT P6SM BKN100
     FM261900 20010KT P6SM BKN100
     FM262200 20010G18KT P6SM VCSH BKN080=



000
FTUS45 KABQ 252340
TAFFMN
TAF
KFMN 252340Z 2600/2624 13011KT P6SM VCTS BKN090CB
      TEMPO 2600/2603 VRB11G21KT -SHRA BKN090
     FM260300 13011KT P6SM VCSH SCT060 BKN090
     FM261500 07006KT 6SM -TSRA BKN060CB
     FM261800 14011KT P6SM VCSH SCT060 BKN090=



000
FTUS45 KABQ 252340
TAFGUP
TAF
KGUP 252340Z 2600/2624 19010KT P6SM VCSH BKN080
      TEMPO 2600/2602 VRB15G25KT 6SM -TSRA OVC080CB
     FM260600 VRB05KT P6SM VCSH BKN080
     FM261800 21012G22KT P6SM BKN100
     FM262100 22012G22KT P6SM VCTS BKN080CB=



000
FTUS45 KABQ 252340
TAFTCC
TAF
KTCC 252340Z 2600/2624 17011KT P6SM VCSH SCT070
     FM260300 22008KT P6SM SCT100
     FM261800 20011G21KT P6SM SCT100=



000
FTUS45 KABQ 252340
TAFROW
TAF
KROW 252340Z 2600/2624 17008KT P6SM VCSH SCT080
     FM260300 20006KT P6SM SCT080
     FM261900 16010KT P6SM SCT090=



000
FTUS45 KABQ 252340
TAFLVS
TAF
KLVS 252340Z 2600/2624 16011KT P6SM SCT080
     FM260300 21008KT P6SM SCT080
     FM261900 20014G24KT P6SM VCTS BKN090CB
     FM262200 22013G23KT P6SM VCSH BKN090=



000
FTUS45 KABQ 252340
TAFSAF
TAF
KSAF 252340Z 2600/2624 16011KT P6SM VCSH BKN090 BKN150
     FM260400 36008KT P6SM BKN090
     FM262000 22011KT P6SM VCSH BKN090=



000
FTUS45 KABQ 252242 AAA
TAFLVS
TAF AMD
KLVS 252242Z 2523/2618 13011KT P6SM VCSH SCT080
     FM260300 21008KT P6SM SCT070 BKN150=



000
FTUS45 KABQ 252242 AAA
TAFLVS
TAF AMD
KLVS 252242Z 2523/2618 13011KT P6SM VCSH SCT080
     FM260300 21008KT P6SM SCT070 BKN150=



000
FTUS45 KABQ 251728
TAFTCC
TAF
KTCC 251728Z 2518/2618 24008KT P6SM FEW070
     FM252000 20010G17KT P6SM SCT080
     FM260200 19010KT P6SM SCT100 SCT150=



000
FTUS45 KABQ 251728
TAFGUP
TAF
KGUP 251728Z 2518/2618 VRB05KT P6SM FEW070 SCT150
     FM251900 16010KT P6SM SCT080 SCT150
     FM252100 17010KT P6SM VCSH SCT080 BKN120
      TEMPO 2522/2602 VRB20G32KT 5SM TSRA OVC060CB
     FM260200 19007KT P6SM VCSH BKN090
     FM260900 VRB05KT P6SM SCT090 BKN120=



000
FTUS45 KABQ 251728
TAFLVS
TAF
KLVS 251728Z 2518/2618 VRB06KT P6SM FEW090
     FM251900 18012KT P6SM FEW090
     FM252100 16012G18KT P6SM SCT080 SCT250
     FM260300 21008KT P6SM SCT070 BKN150=



000
FTUS45 KABQ 251728
TAFSAF
TAF
KSAF 251728Z 2518/2618 VRB06KT P6SM FEW080 SCT250
     FM252000 16010KT P6SM SCT080 SCT250
     FM252300 13009KT P6SM VCSH BKN090 BKN150
      TEMPO 2523/2603 VRB18G31KT -TSRA BKN080CB BKN140
     FM260300 15008KT P6SM VCSH BKN100 BKN150
     FM260800 01008KT P6SM SCT100 SCT150=



000
FTUS45 KABQ 251728
TAFROW
TAF
KROW 251728Z 2518/2618 VRB06KT P6SM FEW080
     FM251900 16010KT P6SM FEW080 SCT200
     FM260600 VRB05KT P6SM FEW110 SCT200=



000
FTUS45 KABQ 251728
TAFABQ
TAF
KABQ 251728Z 2518/2618 VRB06KT P6SM FEW070 SCT200
     FM251930 22009KT P6SM SCT080 SCT150
     FM252300 20010KT P6SM VCSH SCT090 BKN140
      TEMPO 2523/2603 VRB18G31KT BKN080 BKN140
     FM260300 15008KT P6SM VCSH BKN100 BKN150
     FM260800 VRB05KT P6SM SCT100 SCT150=



000
FTUS45 KABQ 251728
TAFFMN
TAF
KFMN 251728Z 2518/2618 VRB06KT P6SM FEW080 SCT150
     FM252100 17007KT P6SM SCT090 BKN150
     FM260200 11009KT P6SM BKN100
      TEMPO 2602/2606 -SHRA BKN070 OVC120=



    US Dept of Commerce
    National Oceanic and Atmospheric Administration
    National Weather Service
    1325 East West Highway
    Silver Spring, MD 20910
    Page Author: NWS Internet Services Team
Disclaimer
Information Quality
Credits
Glossary
Privacy Policy
Freedom of Information Act (FOIA)
About Us
Career Opportunities